Time;durP1;ratioP1;P1;durP2;ratioP2;P2;SDS_P1;SDS_P2;PMS_P1;PMS_P2;Temp;Humidity;BMP_temperature;BMP_pressure;BME280_temperature;BME280_humidity;BME280_pressure;Samples;Min_cycle;Max_cycle;Signal;HPM_P1;HPM_P2
2021/07/14 00:02:02;;;;;;;12.55;11.27;;;;;;;19.24;70.17;96415.28;5033913;28;20033;-64
2021/07/14 00:04:28;;;;;;;12.95;11.50;;;;;;;19.21;70.45;96422.59;5033838;28;20025;-61
2021/07/14 00:06:53;;;;;;;13.20;11.50;;;;;;;19.18;70.56;96424.50;5033811;28;20484;-68
2021/07/14 00:09:19;;;;;;;14.48;11.40;;;;;;;19.23;70.47;96413.56;5033623;28;20037;-68
2021/07/14 00:11:52;;;;;;;14.68;10.55;;;;;;;19.18;70.07;96413.06;5033662;28;20049;-66
2021/07/14 00:22:18;;;;;;;10.98;9.88;;;;;;;19.18;70.60;96423.69;5033453;28;20163;-61
2021/07/14 00:24:44;;;;;;;12.82;10.68;;;;;;;19.15;70.53;96422.06;5033399;28;20092;-67
2021/07/14 00:27:12;;;;;;;12.50;11.20;;;;;;;19.11;70.23;96414.50;5033413;28;20041;-69
2021/07/14 00:29:48;;;;;;;12.07;10.48;;;;;;;19.17;70.28;96414.00;5033274;28;20031;-66
2021/07/14 00:32:14;;;;;;;11.95;10.70;;;;;;;19.16;69.98;96417.63;5033352;28;20108;-65
2021/07/14 00:34:40;;;;;;;16.73;10.20;;;;;;;19.13;69.87;96420.50;5033168;28;20108;-64
2021/07/14 00:37:05;;;;;;;18.20;10.63;;;;;;;19.06;69.93;96415.63;5032735;28;20025;-66
2021/07/14 00:39:30;;;;;;;13.48;10.23;;;;;;;19.00;70.02;96417.91;5033170;28;20033;-61
2021/07/14 00:41:56;;;;;;;14.38;11.55;;;;;;;18.97;70.41;96413.69;5033116;28;20040;-69
2021/07/14 00:44:22;;;;;;;12.10;10.07;;;;;;;18.96;70.19;96408.50;5033122;28;20080;-67
2021/07/14 00:46:48;;;;;;;10.70;9.60;;;;;;;18.91;70.15;96409.66;5033153;28;20377;-64
2021/07/14 00:49:14;;;;;;;12.65;11.30;;;;;;;18.85;70.09;96404.84;5033162;28;20094;-64
2021/07/14 00:51:40;;;;;;;11.90;10.70;;;;;;;18.86;70.30;96403.88;5032905;28;20046;-66
2021/07/14 00:54:06;;;;;;;12.02;10.00;;;;;;;18.86;70.28;96401.22;5033110;28;20084;-67
2021/07/14 00:56:31;;;;;;;17.77;10.50;;;;;;;18.72;72.17;96407.53;5033059;28;20021;-65
2021/07/14 00:58:58;;;;;;;11.52;10.38;;;;;;;18.67;72.07;96407.88;5032999;28;20030;-64
2021/07/14 01:01:24;;;;;;;13.63;12.23;;;;;;;18.65;71.82;96408.94;5033048;28;20108;-64
2021/07/14 01:04:01;;;;;;;13.30;10.95;;;;;;;18.70;71.63;96404.16;5033026;28;20025;-62
2021/07/14 01:06:41;;;;;;;11.07;9.88;;;;;;;18.67;71.04;96401.75;5032929;28;20037;-67
2021/07/14 01:09:10;;;;;;;13.27;11.02;;;;;;;18.69;71.04;96398.00;5033006;28;20045;-64
2021/07/14 01:11:38;;;;;;;12.48;10.55;;;;;;;18.68;71.06;96403.41;5032978;28;20120;-63
2021/07/14 01:14:08;;;;;;;11.50;10.40;;;;;;;18.72;71.25;96399.59;5032867;28;20108;-60
2021/07/14 01:16:39;;;;;;;14.20;12.48;;;;;;;18.74;70.76;96405.63;5032898;28;20041;-64
2021/07/14 01:19:43;;;;;;;11.20;9.90;;;;;;;18.76;70.25;96405.50;5033020;28;20026;-66
2021/07/14 01:22:25;;;;;;;13.25;10.40;;;;;;;18.72;70.33;96409.34;5021800;28;20064;-63
2021/07/14 01:25:04;;;;;;;11.63;10.43;;;;;;;18.69;70.72;96408.59;5032841;28;20037;-69
2021/07/14 01:27:35;;;;;;;11.52;10.35;;;;;;;18.72;70.84;96409.34;5032772;28;20042;-67
2021/07/14 01:30:04;;;;;;;13.38;9.85;;;;;;;18.72;71.06;96407.53;5032723;28;20402;-64
2021/07/14 01:32:33;;;;;;;14.13;11.23;;;;;;;18.73;70.98;96403.94;5032755;28;20034;-64
2021/07/14 01:35:08;;;;;;;12.45;10.15;;;;;;;18.71;70.88;96400.56;5032555;28;20037;-63
2021/07/14 01:37:35;;;;;;;12.27;9.80;;;;;;;18.70;71.03;96398.88;5032684;28;20048;-64
2021/07/14 01:40:05;;;;;;;10.65;9.60;;;;;;;18.68;71.03;96395.47;5032503;28;20022;-63
2021/07/14 01:42:33;;;;;;;14.15;11.02;;;;;;;18.67;70.97;96396.44;5032595;28;20025;-64
2021/07/14 01:45:01;;;;;;;11.27;10.02;;;;;;;18.64;70.81;96400.16;5032596;28;20080;-67
2021/07/14 01:47:27;;;;;;;13.13;9.50;;;;;;;18.65;70.67;96393.06;5032662;28;20029;-65
2021/07/14 01:49:56;;;;;;;15.35;11.45;;;;;;;18.65;70.95;96395.69;5034887;28;20163;-61
2021/07/14 01:52:24;;;;;;;11.88;10.00;;;;;;;18.63;70.42;96387.03;5036168;28;20033;-62
2021/07/14 01:54:50;;;;;;;10.50;9.43;;;;;;;18.64;70.94;96394.88;5036064;28;20021;-65
2021/07/14 01:57:18;;;;;;;11.25;10.15;;;;;;;18.66;70.33;96386.81;5036145;28;20021;-64
2021/07/14 01:59:46;;;;;;;9.65;8.75;;;;;;;18.62;70.27;96393.28;5036033;28;20030;-68
2021/07/14 02:02:14;;;;;;;11.32;10.10;;;;;;;18.59;70.70;96388.19;5036169;28;20033;-65
2021/07/14 02:04:42;;;;;;;12.95;10.05;;;;;;;18.61;70.70;96387.16;5036033;28;20025;-68
2021/07/14 02:07:16;;;;;;;14.05;10.98;;;;;;;18.61;70.81;96386.28;5035916;28;20075;-65
2021/07/14 02:09:44;;;;;;;13.90;10.02;;;;;;;18.61;70.97;96386.28;5035991;28;20029;-64
2021/07/14 02:12:15;;;;;;;11.05;9.95;;;;;;;18.55;70.70;96383.13;5035967;28;20017;-63
2021/07/14 02:14:48;;;;;;;13.10;11.80;;;;;;;18.58;70.23;96384.72;5035853;28;20033;-66
2021/07/14 02:17:17;;;;;;;13.35;10.18;;;;;;;18.57;70.98;96393.59;5035895;28;20044;-65
2021/07/14 02:20:06;;;;;;;10.35;9.43;;;;;;;18.61;70.71;96395.09;5035778;28;20048;-64
2021/07/14 02:22:31;;;;;;;12.18;10.95;;;;;;;18.59;70.58;96393.50;5035825;28;20029;-69
2021/07/14 02:24:58;;;;;;;10.75;9.70;;;;;;;18.58;70.91;96389.16;5035684;28;20024;-65
2021/07/14 02:27:23;;;;;;;12.13;9.27;;;;;;;18.58;70.22;96397.09;5035717;28;20052;-62
2021/07/14 02:29:49;;;;;;;11.35;9.18;;;;;;;18.47;70.39;96392.59;5035562;28;20045;-62
2021/07/14 02:32:20;;;;;;;10.32;8.82;;;;;;;18.41;70.68;96401.81;5035490;28;20021;-64
2021/07/14 02:34:47;;;;;;;;;;;;;;;18.39;70.77;96401.94;5035918;28;20033;-62
2021/07/14 02:37:15;;;;;;;12.02;10.82;;;;;;;18.33;70.93;96402.38;5034298;28;19913;-64
2021/07/14 02:39:45;;;;;;;12.40;10.13;;;;;;;18.29;71.17;96404.41;5035368;28;20434;-64
2021/07/14 02:42:15;;;;;;;12.70;11.02;;;;;;;18.27;71.28;96402.84;5035255;28;20087;-62
2021/07/14 02:44:45;;;;;;;15.13;10.30;;;;;;;18.29;71.78;96403.56;5035182;28;20025;-62
2021/07/14 02:47:11;;;;;;;12.48;10.45;;;;;;;18.31;71.68;96401.66;5035261;28;20025;-63
2021/07/14 02:49:41;;;;;;;11.95;9.88;;;;;;;18.29;71.45;96408.84;5035146;28;20021;-64
2021/07/14 02:52:10;;;;;;;14.75;11.85;;;;;;;18.26;71.59;96409.06;5035098;28;20061;-67
2021/07/14 02:54:39;;;;;;;11.95;10.73;;;;;;;18.23;71.68;96412.78;5034945;28;20033;-65
2021/07/14 02:57:07;;;;;;;12.15;10.63;;;;;;;18.25;71.65;96405.59;5035013;28;20059;-65
2021/07/14 02:59:35;;;;;;;11.10;9.90;;;;;;;18.23;71.33;96403.97;5034581;28;20045;-69
2021/07/14 03:02:03;;;;;;;15.27;10.70;;;;;;;18.17;71.20;96402.63;5034990;28;20377;-66
2021/07/14 03:04:38;;;;;;;13.02;10.48;;;;;;;18.21;71.54;96408.56;5034893;28;20025;-65
2021/07/14 03:07:09;;;;;;;13.85;12.05;;;;;;;18.22;71.40;96402.31;5034786;28;20022;-66
2021/07/14 03:09:41;;;;;;;11.35;10.25;;;;;;;18.28;71.85;96399.22;5034752;28;20022;-66
2021/07/14 03:12:13;;;;;;;10.13;9.18;;;;;;;18.29;71.43;96404.41;5034776;28;20475;-65
2021/07/14 03:15:04;;;;;;;13.30;9.68;;;;;;;18.34;71.22;96409.38;5034659;28;20043;-67
2021/07/14 03:17:31;;;;;;;11.15;9.93;;;;;;;18.33;71.05;96406.84;5034495;28;20076;-66
2021/07/14 03:19:58;;;;;;;10.07;9.07;;;;;;;18.31;70.94;96402.47;5034544;28;20034;-67
2021/07/14 03:22:25;;;;;;;11.07;9.98;;;;;;;18.41;71.32;96409.75;5034645;28;20041;-68
2021/07/14 03:24:53;;;;;;;11.10;9.40;;;;;;;18.44;70.51;96413.06;5034596;28;20029;-64
2021/07/14 03:27:19;;;;;;;10.95;9.85;;;;;;;18.44;70.63;96406.91;5034644;28;20040;-66
2021/07/14 03:29:49;;;;;;;12.23;9.32;;;;;;;18.49;70.89;96404.78;5034415;28;20021;-66
2021/07/14 03:32:16;;;;;;;10.73;9.10;;;;;;;18.48;70.86;96411.00;5034270;28;20467;-64
2021/07/14 03:34:42;;;;;;;10.68;9.68;;;;;;;18.53;71.07;96415.97;5034274;28;20034;-66
2021/07/14 03:37:08;;;;;;;10.90;9.80;;;;;;;18.62;71.16;96414.47;5034300;28;20445;-65
2021/07/14 03:39:36;;;;;;;11.10;9.90;;;;;;;18.73;70.97;96416.34;5034279;28;20025;-70
2021/07/14 03:42:03;;;;;;;11.05;9.80;;;;;;;18.94;70.75;96419.22;5034177;28;20017;-68
2021/07/14 03:44:29;;;;;;;16.45;8.70;;;;;;;19.17;69.97;96420.16;5032813;28;20390;-69
2021/07/14 03:46:58;;;;;;;10.27;9.20;;;;;;;19.44;69.24;96421.69;5034027;28;20028;-63
2021/07/14 03:49:25;;;;;;;9.07;8.13;;;;;;;19.80;68.72;96424.28;5034053;28;20427;-66
2021/07/14 03:51:51;;;;;;;9.38;8.45;;;;;;;20.16;67.74;96424.22;5033925;28;20046;-69
2021/07/14 03:54:18;;;;;;;9.15;7.88;;;;;;;20.53;66.51;96431.03;5033769;28;20029;-68
2021/07/14 03:56:44;;;;;;;11.48;7.88;;;;;;;20.89;65.62;96428.19;5033847;28;20101;-68
2021/07/14 03:59:10;;;;;;;9.75;7.82;;;;;;;21.26;64.54;96428.81;5033925;28;20176;-68
2021/07/14 04:01:36;;;;;;;8.23;7.07;;;;;;;21.58;63.32;96433.22;5033830;28;20032;-65
2021/07/14 04:04:02;;;;;;;8.73;7.22;;;;;;;21.86;62.34;96436.22;5033884;28;20029;-65
2021/07/14 04:06:34;;;;;;;9.73;7.00;;;;;;;22.20;61.49;96443.09;5033594;28;20075;-64
2021/07/14 04:09:18;;;;;;;8.30;7.40;;;;;;;22.56;60.74;96440.84;5033631;28;20029;-64
2021/07/14 04:11:55;;;;;;;7.85;6.72;;;;;;;22.85;59.98;96442.75;5032925;28;20025;-67
2021/07/14 04:14:22;;;;;;;8.27;6.47;;;;;;;23.15;59.05;96429.44;5033694;28;20061;-72
2021/07/14 04:16:47;;;;;;;7.45;6.75;;;;;;;23.45;58.83;96434.81;5033466;28;20029;-69
2021/07/14 04:19:13;;;;;;;7.68;6.88;;;;;;;23.80;57.78;96435.16;5033416;28;20036;-70
2021/07/14 04:21:39;;;;;;;7.80;6.10;;;;;;;24.09;57.22;96440.44;5033514;28;20022;-66
2021/07/14 04:24:05;;;;;;;7.05;6.32;;;;;;;24.40;57.03;96446.50;5033473;28;20426;-66
2021/07/14 04:26:31;;;;;;;6.55;5.95;;;;;;;24.71;56.63;96447.03;5033296;28;20463;-64
2021/07/14 04:28:57;;;;;;;6.93;6.03;;;;;;;25.01;55.40;96449.56;5033388;28;20033;-67
2021/07/14 04:31:24;;;;;;;7.47;6.78;;;;;;;25.24;55.13;96454.47;5033404;28;20104;-72
2021/07/14 04:33:49;;;;;;;9.48;6.80;;;;;;;25.48;54.81;96453.00;5033230;28;20032;-66
2021/07/14 04:36:15;;;;;;;6.82;5.80;;;;;;;25.81;54.51;96453.28;5033257;28;20018;-64
2021/07/14 04:38:40;;;;;;;9.02;6.72;;;;;;;26.15;54.16;96457.00;5033339;28;20021;-68
2021/07/14 04:41:06;;;;;;;8.52;6.80;;;;;;;26.52;53.16;96454.19;5033419;28;20026;-69
2021/07/14 04:43:32;;;;;;;8.82;6.47;;;;;;;26.78;52.85;96456.78;5033090;28;20348;-65
2021/07/14 04:45:58;;;;;;;7.00;6.25;;;;;;;27.07;52.22;96465.44;5033155;28;20032;-66
2021/07/14 04:48:27;;;;;;;6.45;5.85;;;;;;;27.37;52.22;96465.81;5033182;28;20426;-64
2021/07/14 04:50:53;;;;;;;7.80;7.07;;;;;;;27.74;51.66;96463.66;5032832;28;20060;-65
2021/07/14 04:53:19;;;;;;;7.55;6.10;;;;;;;28.05;51.49;96468.31;5033045;28;20026;-72
2021/07/14 04:55:44;;;;;;;7.68;6.85;;;;;;;28.32;50.85;96468.97;5032950;28;20061;-65
2021/07/14 04:58:10;;;;;;;6.20;5.60;;;;;;;28.50;50.23;96474.13;5033020;28;20032;-69
2021/07/14 05:00:36;;;;;;;7.45;6.35;;;;;;;28.66;49.22;96476.91;5033038;28;20057;-67
2021/07/14 05:03:02;;;;;;;6.95;6.35;;;;;;;28.83;49.52;96472.31;5033056;28;20060;-73
2021/07/14 05:05:27;;;;;;;9.38;6.15;;;;;;;29.00;49.39;96473.91;5033089;28;20057;-64
2021/07/14 05:07:53;;;;;;;7.10;6.35;;;;;;;29.29;48.13;96468.88;5032861;28;20033;-68
2021/07/14 05:10:21;;;;;;;7.72;6.50;;;;;;;29.52;47.83;96470.69;5032813;28;20064;-70
2021/07/14 05:12:47;;;;;;;10.43;6.82;;;;;;;29.68;45.46;96471.63;5032894;28;20045;-64
2021/07/14 05:15:13;;;;;;;10.07;7.55;;;;;;;29.83;46.53;96477.06;5032899;28;20022;-67
2021/07/14 05:17:39;;;;;;;9.68;6.68;;;;;;;30.07;47.08;96469.75;5032830;28;20044;-66
2021/07/14 05:20:06;;;;;;;7.32;6.63;;;;;;;30.25;45.31;96472.13;5032722;28;20397;-67
2021/07/14 05:22:32;;;;;;;7.97;7.18;;;;;;;30.46;44.93;96473.25;5033399;28;20030;-68
2021/07/14 05:24:58;;;;;;;9.00;7.35;;;;;;;30.71;44.85;96481.03;5036709;28;20036;-67
2021/07/14 05:27:24;;;;;;;8.65;7.53;;;;;;;31.01;43.91;96478.31;5036625;28;20024;-67
2021/07/14 05:29:49;;;;;;;10.82;7.05;;;;;;;31.17;42.31;96471.81;5036679;28;20025;-66
2021/07/14 05:32:15;;;;;;;12.57;7.20;;;;;;;31.31;42.54;96474.66;5036555;28;20028;-65
2021/07/14 05:34:41;;;;;;;9.57;6.95;;;;;;;31.42;42.97;96474.16;5036366;28;20467;-66
2021/07/14 05:37:06;;;;;;;9.68;7.13;;;;;;;31.56;43.41;96468.91;5036604;28;20025;-69
2021/07/14 05:39:32;;;;;;;8.05;6.82;;;;;;;31.82;44.41;96476.41;5036562;28;20064;-69
2021/07/14 05:41:57;;;;;;;10.98;6.30;;;;;;;32.10;44.39;96477.47;5036395;28;20045;-70
2021/07/14 05:44:23;;;;;;;8.50;7.18;;;;;;;32.35;43.71;96474.31;5036350;28;20083;-69
2021/07/14 05:46:50;;;;;;;9.93;6.38;;;;;;;32.48;42.37;96471.69;5036332;28;20171;-71
2021/07/14 05:49:16;;;;;;;7.43;6.28;;;;;;;32.68;41.91;96467.44;5035092;28;20395;-69
2021/07/14 05:51:42;;;;;;;11.50;7.00;;;;;;;32.86;42.22;96470.41;5036038;28;20128;-69
2021/07/14 05:54:07;;;;;;;8.02;6.68;;;;;;;33.05;43.18;96470.72;5036119;28;20109;-70
2021/07/14 05:56:33;;;;;;;7.90;6.13;;;;;;;33.01;40.16;96480.25;5036220;28;20075;-70
2021/07/14 05:58:58;;;;;;;10.20;6.47;;;;;;;33.17;42.13;96479.09;5036055;28;20025;-67
2021/07/14 06:01:24;;;;;;;9.60;5.90;;;;;;;33.44;42.32;96479.16;5036221;28;20025;-67
2021/07/14 06:03:49;;;;;;;8.27;6.25;;;;;;;33.64;40.32;96481.06;5036140;28;20025;-66
2021/07/14 06:06:15;;;;;;;10.35;5.65;;;;;;;33.90;40.48;96476.69;5036056;28;20048;-62
2021/07/14 06:08:42;;;;;;;6.97;5.88;;;;;;;34.09;40.29;96482.28;5035908;28;20108;-69
2021/07/14 06:11:08;;;;;;;9.07;6.35;;;;;;;34.12;39.90;96484.59;5035779;28;20030;-65
2021/07/14 06:13:34;;;;;;;7.68;6.32;;;;;;;34.22;38.50;96492.34;5035817;28;20029;-63
2021/07/14 06:15:59;;;;;;;7.63;6.13;;;;;;;34.44;39.45;96495.63;5035747;28;20021;-67
2021/07/14 06:18:25;;;;;;;8.75;6.35;;;;;;;34.58;38.48;96493.72;5035810;28;20025;-64
2021/07/14 06:20:51;;;;;;;6.95;6.25;;;;;;;34.81;38.58;96491.56;5035719;28;20138;-69
2021/07/14 06:23:16;;;;;;;10.10;6.13;;;;;;;35.04;37.46;96494.59;5035593;28;20037;-67
2021/07/14 06:25:42;;;;;;;6.82;6.00;;;;;;;35.19;37.32;96495.41;5035596;28;20029;-66
2021/07/14 06:28:12;;;;;;;6.55;5.70;;;;;;;35.39;36.35;96503.44;5035687;28;20030;-68
2021/07/14 06:30:38;;;;;;;;;;;;;;;35.58;35.84;96493.50;5036177;28;20025;-64
2021/07/14 06:33:03;;;;;;;8.82;6.10;;;;;;;35.74;36.83;96499.47;5035529;28;19909;-69
2021/07/14 06:35:29;;;;;;;6.50;5.78;;;;;;;35.84;35.14;96497.09;5034538;28;20501;-73
2021/07/14 06:37:55;;;;;;;6.40;5.80;;;;;;;35.98;35.55;96497.81;5035350;28;20021;-65
2021/07/14 06:40:20;;;;;;;6.85;6.15;;;;;;;36.14;35.07;96501.00;5035338;28;20022;-68
2021/07/14 06:42:48;;;;;;;7.80;5.90;;;;;;;36.13;34.38;96499.34;5035274;28;20427;-67
2021/07/14 06:45:14;;;;;;;5.97;5.47;;;;;;;36.11;34.15;96498.78;5035286;28;20040;-66
2021/07/14 06:47:39;;;;;;;7.05;6.05;;;;;;;36.23;33.80;96499.72;5035386;28;20025;-70
2021/07/14 06:50:07;;;;;;;8.18;5.72;;;;;;;36.39;33.16;96495.56;5035057;28;20387;-65
2021/07/14 06:52:33;;;;;;;6.22;5.63;;;;;;;36.53;33.49;96488.09;5035205;28;20049;-68
2021/07/14 06:54:59;;;;;;;11.32;5.95;;;;;;;36.66;34.24;96484.38;5035108;28;20522;-70
2021/07/14 06:57:25;;;;;;;6.85;5.70;;;;;;;36.61;33.05;96481.53;5035111;28;20038;-70
2021/07/14 06:59:51;;;;;;;7.07;6.25;;;;;;;36.69;33.99;96483.13;5034981;28;20033;-69
2021/07/14 07:02:17;;;;;;;6.60;5.88;;;;;;;36.63;33.07;96479.38;5034830;28;20056;-67
2021/07/14 07:04:42;;;;;;;6.97;6.30;;;;;;;36.67;32.14;96483.34;5034796;28;20025;-66
2021/07/14 07:07:08;;;;;;;6.93;6.10;;;;;;;36.58;31.90;96481.97;5034967;28;20095;-67
2021/07/14 07:09:34;;;;;;;7.85;5.32;;;;;;;36.68;33.90;96486.88;5034807;28;20030;-63
2021/07/14 07:11:59;;;;;;;6.75;5.47;;;;;;;36.49;31.76;96486.06;5034764;28;20018;-66
2021/07/14 07:14:25;;;;;;;6.65;5.32;;;;;;;36.57;31.32;96474.88;5034694;28;20025;-64
2021/07/14 07:16:53;;;;;;;6.47;5.60;;;;;;;36.46;32.74;96479.19;5034790;28;20147;-66
2021/07/14 07:19:19;;;;;;;7.43;5.13;;;;;;;36.26;31.79;96492.97;5034712;28;20112;-69
2021/07/14 07:21:48;;;;;;;5.80;5.30;;;;;;;36.11;32.71;96485.97;5033331;28;20540;-72
2021/07/14 07:24:14;;;;;;;6.35;5.70;;;;;;;36.25;31.48;96485.88;5034595;28;20108;-68
2021/07/14 07:26:40;;;;;;;6.65;4.82;;;;;;;36.12;31.09;96493.06;5034424;28;20045;-68
2021/07/14 07:29:06;;;;;;;8.93;5.47;;;;;;;35.60;30.27;96485.13;5034479;28;20025;-71
2021/07/14 07:31:32;;;;;;;9.63;5.95;;;;;;;35.11;30.53;96475.56;5034442;28;20376;-66
2021/07/14 07:33:58;;;;;;;5.75;5.15;;;;;;;34.73;32.06;96481.81;5034350;28;20057;-67
2021/07/14 07:36:25;;;;;;;7.72;5.45;;;;;;;34.26;32.62;96480.88;5034227;28;20487;-69
2021/07/14 07:38:51;;;;;;;6.80;5.35;;;;;;;34.15;34.43;96478.78;5034345;28;20395;-67
2021/07/14 07:41:20;;;;;;;7.18;5.35;;;;;;;34.19;32.16;96480.00;5034192;28;20022;-64
2021/07/14 07:43:45;;;;;;;8.15;5.00;;;;;;;34.39;31.10;96481.88;5034325;28;20044;-65
2021/07/14 07:46:11;;;;;;;6.00;4.82;;;;;;;34.67;32.35;96478.03;5034202;28;20025;-67
2021/07/14 07:48:37;;;;;;;7.20;4.82;;;;;;;34.72;30.09;96475.53;5034036;28;20475;-65
2021/07/14 07:51:04;;;;;;;5.70;5.20;;;;;;;34.56;30.00;96471.38;5033689;28;20049;-68
2021/07/14 07:53:30;;;;;;;9.13;5.22;;;;;;;34.66;31.73;96474.50;5034251;28;20380;-68
2021/07/14 07:55:56;;;;;;;6.78;5.32;;;;;;;34.60;32.25;96472.63;5033913;28;20017;-70
2021/07/14 07:58:21;;;;;;;8.77;5.47;;;;;;;34.74;32.34;96467.19;5033897;28;20022;-65
2021/07/14 08:00:48;;;;;;;7.53;5.00;;;;;;;34.87;30.87;96466.28;5033831;28;20029;-70
2021/07/14 08:03:14;;;;;;;7.82;5.43;;;;;;;34.61;28.19;96473.47;5033938;28;20029;-67
2021/07/14 08:05:40;;;;;;;8.60;5.32;;;;;;;34.35;28.38;96470.63;5033687;28;20100;-67
2021/07/14 08:08:07;;;;;;;5.25;4.28;;;;;;;34.48;29.65;96477.03;5033683;28;20439;-66
2021/07/14 08:10:33;;;;;;;8.52;4.38;;;;;;;34.42;29.23;96481.44;5033661;28;20531;-67
2021/07/14 08:12:59;;;;;;;14.20;4.85;;;;;;;34.20;29.98;96472.72;5033693;28;20029;-60
2021/07/14 08:15:24;;;;;;;7.07;4.80;;;;;;;34.12;31.36;96466.47;5033507;28;20044;-64
2021/07/14 08:17:50;;;;;;;5.35;4.78;;;;;;;33.99;29.73;96464.59;5033502;28;20472;-64
2021/07/14 08:20:16;;;;;;;6.75;4.32;;;;;;;33.91;31.45;96464.78;5033701;28;20017;-63
2021/07/14 08:22:42;;;;;;;6.22;4.43;;;;;;;34.07;30.54;96465.41;5033400;28;20095;-64
2021/07/14 08:25:10;;;;;;;9.20;5.13;;;;;;;34.14;31.33;96467.09;5033439;28;20024;-69
2021/07/14 08:27:36;;;;;;;6.50;4.93;;;;;;;34.15;29.40;96468.78;5033436;28;20075;-67
2021/07/14 08:30:04;;;;;;;6.68;4.60;;;;;;;33.98;30.90;96462.91;5033411;28;20057;-67
2021/07/14 08:32:30;;;;;;;6.72;5.35;;;;;;;34.13;33.97;96462.72;5033438;28;20448;-70
2021/07/14 08:34:56;;;;;;;6.10;5.18;;;;;;;34.23;29.80;96464.16;5033163;28;20049;-64
2021/07/14 08:37:23;;;;;;;5.93;4.75;;;;;;;34.61;29.04;96466.13;5033195;28;20026;-61
2021/07/14 08:39:50;;;;;;;6.00;5.40;;;;;;;34.69;30.97;96464.25;5033311;28;20025;-67
2021/07/14 08:42:18;;;;;;;8.82;5.13;;;;;;;34.68;29.47;96468.88;5033200;28;20021;-68
2021/07/14 08:44:43;;;;;;;6.97;5.20;;;;;;;34.81;29.53;96457.13;5033306;28;20018;-65
2021/07/14 08:47:10;;;;;;;10.77;5.05;;;;;;;35.01;30.67;96457.03;5031968;28;20033;-66
2021/07/14 08:49:37;;;;;;;7.82;4.75;;;;;;;35.00;28.64;96457.25;5033152;28;20025;-64
2021/07/14 08:52:03;;;;;;;6.35;5.00;;;;;;;35.00;29.00;96459.97;5032822;28;20041;-70
2021/07/14 08:54:29;;;;;;;10.55;4.97;;;;;;;35.31;28.84;96450.19;5032979;28;20403;-65
2021/07/14 08:56:55;;;;;;;5.32;4.82;;;;;;;35.30;28.38;96451.22;5033045;28;20029;-64
2021/07/14 08:59:21;;;;;;;6.57;5.35;;;;;;;35.09;30.41;96458.63;5032830;28;20028;-67
2021/07/14 09:01:48;;;;;;;11.93;6.15;;;;;;;34.98;29.44;96449.31;5033022;28;20017;-68
2021/07/14 09:04:14;;;;;;;7.68;6.70;;;;;;;34.73;31.31;96454.66;5033027;28;20074;-68
2021/07/14 09:06:39;;;;;;;12.77;7.60;;;;;;;34.27;33.89;96451.84;5032877;28;20021;-72
2021/07/14 09:09:06;;;;;;;12.07;7.97;;;;;;;34.14;33.54;96447.28;5032973;28;20022;-68
2021/07/14 09:11:49;;;;;;;10.88;8.20;;;;;;;34.19;33.52;96443.94;5032925;28;20025;-61
2021/07/14 09:14:32;;;;;;;13.18;8.45;;;;;;;34.02;33.79;96458.75;5032741;28;20033;-65
2021/07/14 09:16:59;;;;;;;14.93;8.43;;;;;;;33.41;34.14;96449.75;5032818;28;20115;-68
2021/07/14 09:19:29;;;;;;;8.80;7.90;;;;;;;33.00;35.09;96451.50;5032819;28;20496;-65
2021/07/14 09:21:56;;;;;;;8.55;7.47;;;;;;;33.22;37.24;96449.50;5032933;28;20041;-65
2021/07/14 09:24:34;;;;;;;10.05;7.75;;;;;;;33.25;34.93;96448.25;5032813;28;20471;-64
2021/07/14 09:27:03;;;;;;;9.85;7.22;;;;;;;33.25;34.14;96450.97;5032756;28;20119;-66
2021/07/14 09:29:30;;;;;;;14.43;9.27;;;;;;;33.11;35.25;96455.53;5032705;28;20029;-65
2021/07/14 09:31:56;;;;;;;12.27;9.10;;;;;;;33.06;34.94;96441.75;5032824;28;20049;-67
2021/07/14 09:34:31;;;;;;;13.73;7.82;;;;;;;33.12;35.44;96449.91;5032718;28;20472;-66
2021/07/14 09:36:57;;;;;;;15.57;8.65;;;;;;;33.14;34.81;96439.69;5032710;28;20397;-67
2021/07/14 09:39:40;;;;;;;12.00;7.95;;;;;;;33.28;34.69;96447.84;5032646;28;20024;-70
2021/07/14 09:42:10;;;;;;;9.95;8.20;;;;;;;33.49;38.04;96452.25;5032635;28;20235;-68
2021/07/14 09:44:50;;;;;;;15.73;8.68;;;;;;;33.46;35.33;96452.66;5032607;28;20018;-68
2021/07/14 09:47:22;;;;;;;13.32;8.68;;;;;;;33.33;37.18;96453.50;5032600;28;20025;-64
2021/07/14 09:49:49;;;;;;;15.48;8.30;;;;;;;33.31;36.71;96452.03;5032364;28;20693;-67
2021/07/14 09:52:21;;;;;;;12.65;8.05;;;;;;;33.17;35.74;96452.00;5032560;28;20025;-66
2021/07/14 09:54:47;;;;;;;8.35;7.18;;;;;;;33.12;37.66;96454.47;5032464;28;20052;-69
2021/07/14 09:57:18;;;;;;;11.43;7.68;;;;;;;33.22;34.68;96451.38;5032476;28;20029;-70
2021/07/14 09:59:45;;;;;;;10.63;7.57;;;;;;;33.32;35.59;96454.53;5032495;28;20045;-64
2021/07/14 10:02:13;;;;;;;11.57;7.97;;;;;;;33.47;34.11;96457.03;5032423;28;20021;-65
2021/07/14 10:04:40;;;;;;;9.90;7.72;;;;;;;33.60;34.78;96455.41;5032559;28;20029;-68
2021/07/14 10:07:15;;;;;;;9.18;7.57;;;;;;;33.87;36.50;96450.84;5032423;28;20096;-62
2021/07/14 10:09:42;;;;;;;8.85;6.72;;;;;;;34.08;33.97;96448.09;5033031;28;20038;-71
2021/07/14 10:12:28;;;;;;;8.25;7.00;;;;;;;34.43;32.89;96442.38;5036063;28;20057;-66
2021/07/14 10:14:55;;;;;;;9.18;7.82;;;;;;;34.59;35.04;96442.97;5035710;28;20057;-67
2021/07/14 10:17:41;;;;;;;10.38;7.03;;;;;;;34.41;34.95;96436.34;5035713;28;20032;-69
2021/07/14 10:20:29;;;;;;;9.35;7.85;;;;;;;34.19;35.57;96450.16;5035826;28;20383;-64
2021/07/14 10:22:56;;;;;;;9.20;7.20;;;;;;;34.03;36.53;96443.28;5035912;28;20029;-62
2021/07/14 10:25:23;;;;;;;11.80;7.57;;;;;;;33.99;34.54;96445.59;5035631;28;20113;-68
2021/07/14 10:27:50;;;;;;;9.50;7.50;;;;;;;33.78;35.87;96430.41;5035788;28;20041;-64
2021/07/14 10:30:18;;;;;;;8.23;7.25;;;;;;;33.53;36.59;96431.81;5035512;28;20116;-62
2021/07/14 10:32:45;;;;;;;8.73;6.57;;;;;;;33.69;35.73;96428.94;5035518;28;20030;-66
2021/07/14 10:35:14;;;;;;;8.73;7.60;;;;;;;33.65;36.49;96433.94;5035444;28;20029;-70
2021/07/14 10:37:44;;;;;;;16.03;7.93;;;;;;;33.73;37.69;96438.31;5035536;28;20029;-68
2021/07/14 10:40:11;;;;;;;8.93;7.25;;;;;;;33.82;38.77;96431.63;5035356;28;20514;-67
2021/07/14 10:42:37;;;;;;;7.13;6.43;;;;;;;34.00;38.16;96427.44;5035378;28;20025;-67
2021/07/14 10:45:04;;;;;;;11.23;6.82;;;;;;;34.03;36.04;96425.16;5035403;28;20028;-69
2021/07/14 10:47:30;;;;;;;9.93;7.20;;;;;;;34.10;36.50;96419.69;5035288;28;20033;-71
2021/07/14 10:49:57;;;;;;;14.57;7.45;;;;;;;34.20;37.17;96422.03;5034990;28;20024;-68
2021/07/14 10:52:24;;;;;;;7.75;6.93;;;;;;;34.25;34.94;96421.38;5035126;28;20110;-67
2021/07/14 10:54:54;;;;;;;10.48;7.13;;;;;;;34.29;34.94;96419.91;5035062;28;20025;-66
2021/07/14 10:57:23;;;;;;;16.05;7.68;;;;;;;34.40;34.73;96423.84;5035099;28;20053;-66
2021/07/14 10:59:51;;;;;;;8.98;6.93;;;;;;;34.66;36.50;96430.22;5035063;28;20021;-65
2021/07/14 11:02:16;;;;;;;8.80;7.10;;;;;;;34.78;37.76;96420.38;5034968;28;20108;-65
2021/07/14 11:04:50;;;;;;;7.90;6.55;;;;;;;34.75;30.78;96418.09;5034884;28;20117;-69
2021/07/14 11:07:17;;;;;;;10.15;6.28;;;;;;;34.86;31.69;96410.31;5034888;28;20022;-66
2021/07/14 11:09:46;;;;;;;8.63;6.72;;;;;;;34.80;31.76;96409.28;5034832;28;20489;-63
2021/07/14 11:12:26;;;;;;;8.23;6.53;;;;;;;34.64;33.75;96413.31;5034941;28;20026;-71
2021/07/14 11:14:58;;;;;;;6.90;6.20;;;;;;;34.28;33.45;96410.09;5034771;28;20051;-67
2021/07/14 11:17:34;;;;;;;7.35;6.15;;;;;;;33.72;33.03;96413.09;5034708;28;20033;-69
2021/07/14 11:20:13;;;;;;;9.75;5.75;;;;;;;33.43;32.65;96423.25;5034667;28;20056;-65
2021/07/14 11:22:41;;;;;;;6.90;6.20;;;;;;;33.17;33.17;96410.53;5034383;28;20403;-68
2021/07/14 11:25:19;;;;;;;8.02;6.65;;;;;;;33.41;33.81;96414.53;5034722;28;20025;-65
2021/07/14 11:27:49;;;;;;;11.73;6.35;;;;;;;33.55;35.59;96406.41;5034581;28;20400;-65
2021/07/14 11:30:15;;;;;;;14.90;6.80;;;;;;;33.71;34.85;96405.16;5034497;28;20181;-69
2021/07/14 11:32:43;;;;;;;6.97;6.13;;;;;;;33.45;32.54;96402.22;5034430;28;20481;-67
2021/07/14 11:35:26;;;;;;;8.07;6.88;;;;;;;33.41;33.08;96399.09;5034222;28;20472;-64
2021/07/14 11:37:51;;;;;;;6.85;6.25;;;;;;;33.29;31.49;96400.75;5034339;28;20090;-66
2021/07/14 11:40:25;;;;;;;6.95;6.30;;;;;;;33.36;32.54;96395.34;5034200;28;20105;-66
2021/07/14 11:42:55;;;;;;;7.43;6.50;;;;;;;33.48;31.87;96400.97;5034195;28;20096;-66